Aeroporto :
LOGIN :

Iscrizione | Disclaimer

   EN    FR    IT 

 










Sommario :    VFR   VFR Marginale   IFR   IFR Intensivo   IFR Molto Intensivo
Visibilità : 
Base nubi : 
>= 8 km
>= 3000ft
5 / 8 km
1000 / 3000 ft
1500m / 5 km
500 / 1000 ft
800 / 1500m
200 / 500 ft
< 800m
< 200 ft
Simboli :   Temporali  Nebbia  Neve Forte  Precipitazioni Forti  Vento > 20 kt
SIGMETs :   Varie  Temporali  Ghiacco  Turbolenza  Onda orograficha  Ceneri Vulcaniche






- Altitudine del aeroporto : 776 ft
- Codice IATA : RMS


ETAR - Ramstein Air Base

ULTIMO METAR :
  • 291656Z AUTO 03011KT 9999 CLR 21/04 A3020 RMK AO2 SLP229 T02080039 FZRANO $

METARs OBSOLETI :
  • 291556Z AUTO 03012KT 9999 CLR 21/04 A3021 RMK AO2 SLP235 T02140040 FZRANO $
  • 291456Z AUTO 03011G19KT 9999 FEW075 20/04 A3022 RMK AO2 SLP239 T02020042 57017 FZRANO $

TAF TAF ETAR
Valido dal 29 a 10 ore il 30 a 16 ore UTC


291000Z 2910/3016 06012G20KT 9999 SCT060 510004 QNH3029INS
BECMG 2917/2918 06009KT 9999 SCT060 QNH3022INS
BECMG 3006/3007 06010G20KT 9999 SCT040 510004 QNH3019INS TX22/2914Z TN02/3004Z



MetMap, La meteo Aeronautica in un colpo d'occhio ! - Copyright ORBIFLY Dicembre 2007 - Disclaimer

ORBIFLY MET'MAP TEAM :

Programmazione e sviluppo : Alexandra Zaïnal
Concezione : Baudouin d'Aumeries
Aiuto per la programmazione : Marc-Olivier Méhu
Supporto tecnico e logistico : Manuel Goepfert
Aiuto per la traduzione : Arnaldo La Scala

Contatto : metmap@orbifly.com




FONTI E CREDITI :

   NOAA